Catàleg de serveis del Meteocat
Campanya meteocatpedra

Dades de l'estació automàtica la Tallada d'Empordà

?
?
Resum diari 22:30 TU
Dades diàries de l'estació meteorològica
Temperatura mitjana 8.7 °C
Temperatura màxima 14.8 °C 13:51 TU
Temperatura mínima 2.5 °C 1:50 TU
Humitat relativa mitjana 78%
Precipitació acumulada 0.0 mm
Ratxa màxima del vent (2 m) 25.9 km/h - 11º 15:03 TU
Irradiació solar global 6.7 MJ/m2

El tram horari està expressat en Temps Universal (TU). Cal sumar una hora en horari d'hivern i dues en horari d'estiu per passar a l'hora oficial.

la Tallada d'Empordà

Metadades estació meteorol´gica
Municipi La Tallada d'Empordà
Comarca Baix Empordà
Altitud 15 m
Data alta 01.05.1989
Estat actual Operativa
Dades de període
Període
TU
TM
°C
TX
°C
TN
°C
HRM
%
PPT
mm
VVM (2 m)
km/h
DVM (2 m)
graus
VVX (2 m)
km/h
RS
W/m2
00:00 - 00:30 4.2 4.6 3.4 96 0.0 0.7 270 2.9 0
00:30 - 01:00 3.4 4.0 3.0 96 0.0 0.0 270 1.8 0
01:00 - 01:30 3.3 3.6 2.9 97 0.0 0.0 270 0.0 0
01:30 - 02:00 2.9 3.3 2.5 97 0.0 0.0 270 0.7 0
02:00 - 02:30 3.0 3.6 2.7 97 0.0 1.1 275 3.2 0
02:30 - 03:00 4.2 4.9 3.4 97 0.0 2.5 276 7.6 0
03:00 - 03:30 4.7 5.2 4.5 95 0.0 3.2 271 6.8 0
03:30 - 04:00 5.4 5.6 5.2 93 0.0 1.4 289 5.8 0
04:00 - 04:30 5.2 5.3 5.2 92 0.0 2.5 273 6.5 0
04:30 - 05:00 4.9 5.2 4.4 92 0.0 1.8 284 6.5 0
05:00 - 05:30 4.4 5.1 4.1 94 0.0 1.8 278 6.5 0
05:30 - 06:00 4.5 5.0 4.3 94 0.0 1.4 262 6.1 0
06:00 - 06:30 5.3 6.0 4.6 92 0.0 1.8 272 7.2 5
06:30 - 07:00 5.6 6.6 4.6 91 0.0 3.2 280 8.6 18
07:00 - 07:30 5.9 6.2 5.7 88 0.0 4.3 285 9.7 55
07:30 - 08:00 6.4 6.7 6.1 87 0.0 4.0 283 8.6 86
08:00 - 08:30 7.5 8.1 6.7 86 0.0 2.5 274 5.8 148
08:30 - 09:00 8.6 9.3 8.1 82 0.0 1.1 220 4.3 159
09:00 - 09:30 10.3 11.4 9.3 78 0.0 2.2 317 13.3 162
09:30 - 10:00 11.4 11.6 11.3 68 0.0 6.1 5 16.2 112
10:00 - 10:30 11.5 11.8 11.3 70 0.0 2.2 329 7.9 138
10:30 - 11:00 12.5 13.3 11.8 65 0.0 4.7 4 12.2 383
11:00 - 11:30 13.8 14.1 13.4 57 0.0 8.6 7 23.4 512
11:30 - 12:00 13.7 14.3 13.4 59 0.0 9.7 5 21.2 304
12:00 - 12:30 13.4 13.5 13.2 62 0.0 8.6 5 16.2 226
12:30 - 13:00 13.7 14.1 13.4 61 0.0 5.8 358 13.7 252
13:00 - 13:30 14.4 14.7 14.0 57 0.0 9.7 5 19.8 374
13:30 - 14:00 14.6 14.8 14.2 55 0.0 10.1 8 22.0 323
14:00 - 14:30 13.7 14.6 13.2 59 0.0 9.7 0 21.2 123
14:30 - 15:00 13.2 13.2 13.1 59 0.0 10.1 4 22.3 119
15:00 - 15:30 12.9 13.2 12.7 57 0.0 11.9 9 25.9 103
15:30 - 16:00 12.6 12.8 12.1 57 0.0 9.7 7 24.8 71
16:00 - 16:30 11.6 12.1 11.3 59 0.0 7.2 0 22.3 16
16:30 - 17:00 10.5 11.3 9.4 64 0.0 2.9 324 10.8 3
17:00 - 17:30 9.8 10.3 9.2 70 0.0 1.1 217 5.4 4
17:30 - 18:00 11.2 11.7 10.3 59 0.0 2.2 305 8.3 5
18:00 - 18:30 10.9 11.5 10.0 60 0.0 0.4 22 5.0 4
18:30 - 19:00 9.7 10.5 9.3 70 0.0 0.4 199 2.2 4
19:00 - 19:30 9.6 9.7 9.4 75 0.0 1.1 255 3.2 5
19:30 - 20:00 9.8 10.3 9.5 74 0.0 1.1 303 3.2 5
20:00 - 20:30 9.6 9.9 9.4 78 0.0 1.4 181 4.3 4
20:30 - 21:00 9.3 9.7 8.8 77 0.0 2.2 206 6.5 3
21:00 - 21:30 8.1 9.0 7.2 83 0.0 1.1 180 3.6 3
21:30 - 22:00 7.2 7.3 7.0 88 0.0 0.7 159 4.0 3
22:00 - 22:30 6.8 7.0 6.6 90 0.0 0.7 261 4.3 4
22:30 - 23:00 6.7 6.9 6.5 90 0.0 0.7 289 4.7 4

Les dades en taronja només han passat un control de qualitat automàtic. Resta pendent la seva validació definitiva.